createdAt,value
2023-04-19T00:00:48.124Z,7.47
2023-04-19T00:05:39.759Z,7.48
2023-04-19T00:10:31.336Z,7.48
2023-04-19T00:15:22.989Z,7.48
2023-04-19T00:20:14.632Z,7.48
2023-04-19T00:25:06.721Z,7.46
2023-04-19T00:29:58.317Z,7.44
2023-04-19T00:34:50.161Z,7.42
2023-04-19T00:39:41.802Z,7.40
2023-04-19T00:44:33.361Z,7.37
2023-04-19T00:49:26.076Z,7.33
2023-04-19T00:54:18.760Z,7.31
2023-04-19T00:59:11.710Z,7.30
2023-04-19T01:04:03.531Z,7.28
2023-04-19T01:08:55.232Z,7.25
2023-04-19T01:13:46.779Z,7.22
2023-04-19T01:18:40.649Z,7.19
2023-04-19T01:23:32.412Z,7.15
2023-04-19T01:28:24.006Z,7.14
2023-04-19T01:33:15.761Z,7.12
2023-04-19T01:38:07.626Z,7.10
2023-04-19T01:42:59.368Z,7.11
2023-04-19T01:47:51.703Z,7.09
2023-04-19T01:52:43.418Z,7.07
2023-04-19T01:57:35.082Z,7.07
2023-04-19T02:02:27.004Z,7.07
2023-04-19T02:07:18.740Z,7.09
2023-04-19T02:12:10.286Z,7.09
2023-04-19T02:17:01.870Z,7.09
2023-04-19T02:21:57.653Z,7.08
2023-04-19T02:26:49.340Z,7.09
2023-04-19T02:31:40.910Z,7.09
2023-04-19T02:36:32.482Z,7.08
2023-04-19T02:41:24.013Z,7.10
2023-04-19T02:46:15.628Z,7.10
2023-04-19T02:51:07.326Z,7.14
2023-04-19T02:55:59.039Z,7.12
2023-04-19T03:00:50.603Z,7.13
2023-04-19T03:05:42.194Z,7.14
2023-04-19T03:10:33.766Z,7.15
2023-04-19T03:15:25.352Z,7.16
2023-04-19T03:20:17.342Z,7.16
2023-04-19T03:25:12.473Z,7.17
2023-04-19T03:30:04.541Z,7.19
2023-04-19T03:34:56.106Z,7.20
2023-04-19T03:39:47.651Z,7.21
2023-04-19T03:44:39.239Z,7.22
2023-04-19T03:49:31.507Z,7.24
2023-04-19T03:54:23.080Z,7.26
2023-04-19T03:59:14.619Z,7.25
2023-04-19T04:04:06.378Z,7.26
2023-04-19T04:08:58.020Z,7.26
2023-04-19T04:13:50.502Z,7.27
2023-04-19T04:18:42.428Z,7.27
2023-04-19T04:23:33.999Z,7.29
2023-04-19T04:28:25.752Z,7.30
2023-04-19T04:33:18.104Z,7.32
2023-04-19T04:38:21.526Z,7.33
2023-04-19T04:43:15.543Z,7.33
2023-04-19T04:48:07.203Z,7.32
2023-04-19T04:52:58.797Z,7.37
2023-04-19T04:57:50.648Z,7.36
2023-04-19T05:02:42.731Z,7.40
2023-04-19T05:07:34.331Z,7.37
2023-04-19T05:12:25.916Z,7.41
2023-04-19T05:17:18.487Z,7.38
2023-04-19T05:22:10.291Z,7.37
2023-04-19T05:27:01.935Z,7.41
2023-04-19T05:31:53.640Z,7.37
2023-04-19T05:36:45.427Z,7.40
2023-04-19T05:41:37.121Z,7.42
2023-04-19T05:46:28.751Z,7.43
2023-04-19T05:51:20.396Z,7.47
2023-04-19T05:56:11.966Z,7.55
2023-04-19T06:01:04.604Z,7.61
2023-04-19T06:05:56.396Z,7.66
2023-04-19T06:10:54.862Z,7.68
2023-04-19T06:15:50.093Z,7.68
2023-04-19T06:20:42.186Z,7.69
2023-04-19T06:25:33.952Z,7.72
2023-04-19T06:30:25.816Z,7.74
2023-04-19T06:35:17.538Z,7.74
2023-04-19T06:40:09.673Z,7.78
2023-04-19T06:45:01.638Z,7.79
2023-04-19T06:49:54.019Z,7.82
2023-04-19T06:54:49.756Z,7.85
2023-04-19T06:59:41.330Z,7.91
2023-04-19T07:04:33.561Z,7.95
2023-04-19T07:09:25.207Z,8.00
2023-04-19T07:14:19.331Z,8.04
2023-04-19T07:19:10.910Z,8.14
2023-04-19T07:24:02.590Z,8.23
2023-04-19T07:28:54.161Z,8.29
2023-04-19T07:33:45.809Z,8.40
2023-04-19T07:38:37.378Z,8.45
2023-04-19T07:43:30.267Z,8.48
2023-04-19T07:48:21.995Z,8.55
2023-04-19T07:53:13.588Z,8.63
2023-04-19T07:58:05.173Z,8.74
2023-04-19T08:02:57.450Z,9.02
2023-04-19T08:07:51.909Z,9.36
2023-04-19T08:12:50.662Z,9.67
2023-04-19T08:17:53.346Z,9.74
2023-04-19T08:22:45.676Z,9.75
2023-04-19T08:27:37.341Z,9.78
2023-04-19T08:32:28.981Z,9.74
2023-04-19T08:37:20.912Z,9.69
2023-04-19T08:42:24.797Z,9.67
2023-04-19T08:47:31.216Z,9.66
2023-04-19T08:52:27.251Z,9.80
2023-04-19T08:57:18.805Z,9.91
2023-04-19T09:02:10.479Z,10.00
2023-04-19T09:07:02.357Z,10.12
2023-04-19T09:11:53.918Z,10.21
2023-04-19T09:16:45.847Z,10.27
2023-04-19T09:21:37.657Z,10.22
2023-04-19T09:26:30.041Z,10.24
2023-04-19T09:31:39.193Z,10.49
2023-04-19T09:36:33.894Z,10.55
2023-04-19T09:41:26.551Z,10.54
2023-04-19T09:46:31.893Z,10.55
2023-04-19T09:51:23.596Z,10.54
2023-04-19T09:56:15.518Z,10.51
2023-04-19T10:01:15.040Z,10.50
2023-04-19T10:06:10.949Z,10.52
2023-04-19T10:11:13.417Z,10.64
2023-04-19T10:16:18.019Z,10.66
2023-04-19T10:21:11.183Z,10.77
2023-04-19T10:26:04.853Z,10.86
2023-04-19T10:31:03.834Z,10.86
2023-04-19T10:35:57.741Z,10.93
2023-04-19T10:40:52.429Z,11.07
2023-04-19T10:45:45.357Z,11.15
2023-04-19T10:50:59.231Z,11.25
2023-04-19T10:55:51.636Z,11.43
2023-04-19T11:00:43.303Z,11.56
2023-04-19T11:06:30.992Z,11.75
2023-04-19T11:11:22.644Z,11.89
2023-04-19T11:16:14.317Z,11.88
2023-04-19T11:21:05.991Z,11.92
2023-04-19T11:25:59.223Z,11.96
2023-04-19T11:30:54.175Z,11.97
2023-04-19T11:35:45.754Z,11.93
2023-04-19T11:40:37.635Z,11.97
2023-04-19T11:45:34.381Z,11.96
2023-04-19T11:50:39.018Z,12.00
2023-04-19T11:55:33.370Z,12.07
2023-04-19T12:00:29.284Z,12.37
2023-04-19T12:05:21.295Z,12.59
2023-04-19T12:10:13.772Z,12.81
2023-04-19T12:15:08.100Z,12.87
2023-04-19T12:19:59.699Z,12.85
2023-04-19T12:24:52.252Z,12.83
2023-04-19T12:29:44.055Z,12.82
2023-04-19T12:34:36.056Z,13.13
2023-04-19T12:39:28.806Z,13.29
2023-04-19T12:44:20.478Z,13.30
2023-04-19T12:49:12.078Z,13.55
2023-04-19T12:54:03.846Z,13.78
2023-04-19T12:58:55.530Z,14.03
2023-04-19T13:03:47.700Z,14.05
2023-04-19T13:08:45.439Z,13.96
2023-04-19T13:13:39.321Z,14.02
2023-04-19T13:18:31.065Z,14.03
2023-04-19T13:23:22.644Z,14.00
2023-04-19T13:28:14.467Z,14.00
2023-04-19T13:33:08.264Z,14.06
2023-04-19T13:38:00.518Z,14.08
2023-04-19T13:42:53.239Z,14.06
2023-04-19T13:47:45.905Z,14.04
2023-04-19T13:52:37.513Z,14.07
2023-04-19T13:57:29.131Z,14.10
2023-04-19T14:02:21.313Z,14.20
2023-04-19T14:07:13.085Z,14.35
2023-04-19T14:12:04.850Z,14.33
2023-04-19T14:16:56.425Z,14.31
2023-04-19T14:21:48.036Z,14.15
2023-04-19T14:26:39.633Z,14.00
2023-04-19T14:31:31.584Z,14.10
2023-04-19T14:36:23.525Z,14.13
2023-04-19T14:41:15.157Z,14.05
2023-04-19T14:46:08.992Z,14.17
2023-04-19T14:51:00.665Z,14.21
2023-04-19T14:55:52.245Z,14.22
2023-04-19T15:00:44.461Z,14.05
2023-04-19T15:05:36.738Z,13.94
2023-04-19T15:10:28.462Z,13.84
2023-04-19T15:15:20.042Z,13.79
2023-04-19T15:20:11.926Z,13.86
2023-04-19T15:25:04.218Z,13.85
2023-04-19T15:29:55.812Z,13.89
2023-04-19T15:34:47.389Z,13.94
2023-04-19T15:39:38.984Z,13.89
2023-04-19T15:44:30.721Z,13.85
2023-04-19T15:49:22.263Z,13.87
2023-04-19T15:54:14.869Z,13.79
2023-04-19T15:59:06.490Z,13.72
2023-04-19T16:03:58.302Z,13.62
2023-04-19T16:08:50.396Z,13.55
2023-04-19T16:13:41.996Z,13.41
2023-04-19T16:18:33.613Z,13.34
2023-04-19T16:23:25.563Z,13.23
2023-04-19T16:28:17.357Z,13.21
2023-04-19T16:33:09.018Z,13.18
2023-04-19T16:38:04.330Z,13.15
2023-04-19T16:42:56.021Z,13.09
2023-04-19T16:47:48.164Z,13.00
2023-04-19T16:52:40.049Z,12.90
2023-04-19T16:57:32.365Z,12.82
2023-04-19T17:02:24.155Z,12.77
2023-04-19T17:07:15.942Z,12.65
2023-04-19T17:12:07.708Z,12.48
2023-04-19T17:16:59.271Z,12.35
2023-04-19T17:21:50.985Z,12.27
2023-04-19T17:26:42.695Z,12.22
2023-04-19T17:31:34.332Z,12.10
2023-04-19T17:36:26.799Z,11.94
2023-04-19T17:41:18.441Z,11.83
2023-04-19T17:46:13.259Z,11.70
2023-04-19T17:51:05.053Z,11.60
2023-04-19T17:55:56.906Z,11.50
2023-04-19T18:00:48.732Z,11.36
2023-04-19T18:05:40.822Z,11.22
2023-04-19T18:10:32.684Z,11.11
2023-04-19T18:15:24.424Z,10.98
2023-04-19T18:20:16.269Z,10.85
2023-04-19T18:25:08.611Z,10.73
2023-04-19T18:30:03.595Z,10.61
2023-04-19T18:34:55.239Z,10.51
2023-04-19T18:39:47.131Z,10.41
2023-04-19T18:44:52.750Z,10.30
2023-04-19T18:49:55.619Z,10.15
2023-04-19T18:54:56.241Z,10.04
2023-04-19T18:59:47.880Z,9.93
2023-04-19T19:04:52.015Z,9.85
2023-04-19T19:09:55.660Z,9.76
2023-04-19T19:14:47.989Z,9.67
2023-04-19T19:19:39.704Z,9.60
2023-04-19T19:24:32.603Z,9.50
2023-04-19T19:29:25.777Z,9.43
2023-04-19T19:34:27.271Z,9.34
2023-04-19T19:39:22.187Z,9.23
2023-04-19T19:44:13.867Z,9.19
2023-04-19T19:49:06.570Z,9.09
2023-04-19T19:53:58.658Z,9.01
2023-04-19T19:58:51.963Z,8.93
2023-04-19T20:03:44.245Z,8.85
2023-04-19T20:08:39.421Z,8.74
2023-04-19T20:13:33.217Z,8.67
2023-04-19T20:18:25.527Z,8.58
2023-04-19T20:23:19.863Z,8.51
2023-04-19T20:28:12.514Z,8.44
2023-04-19T20:33:04.256Z,8.33
2023-04-19T20:38:02.426Z,8.28
2023-04-19T20:42:53.921Z,8.19
2023-04-19T20:47:47.075Z,8.09
2023-04-19T20:52:38.879Z,8.00
2023-04-19T20:57:30.888Z,7.93
2023-04-19T21:02:23.081Z,7.92
2023-04-19T21:07:14.908Z,7.85
2023-04-19T21:12:06.538Z,7.77
2023-04-19T21:16:58.148Z,7.69
2023-04-19T21:21:49.831Z,7.66
2023-04-19T21:26:41.406Z,7.59
2023-04-19T21:31:33.152Z,7.50
2023-04-19T21:36:24.930Z,7.44
2023-04-19T21:41:16.561Z,7.34
2023-04-19T21:46:08.220Z,7.29
2023-04-19T21:51:00.812Z,7.19
2023-04-19T21:55:52.496Z,7.11
2023-04-19T22:00:44.353Z,7.01
2023-04-19T22:05:36.402Z,6.94
2023-04-19T22:10:29.041Z,6.83
2023-04-19T22:15:21.058Z,6.78
2023-04-19T22:20:14.873Z,6.71
2023-04-19T22:25:06.995Z,6.65
2023-04-19T22:29:58.727Z,6.59
2023-04-19T22:34:50.609Z,6.50
2023-04-19T22:39:42.170Z,6.42
2023-04-19T22:44:33.934Z,6.35
2023-04-19T22:49:25.552Z,6.24
2023-04-19T22:54:17.247Z,6.21
2023-04-19T22:59:08.920Z,6.16
2023-04-19T23:04:00.700Z,6.09
2023-04-19T23:08:52.402Z,6.11
2023-04-19T23:13:44.379Z,6.09
2023-04-19T23:18:36.300Z,6.04
2023-04-19T23:23:27.848Z,6.01
2023-04-19T23:28:19.539Z,5.91
2023-04-19T23:33:11.304Z,5.88
2023-04-19T23:38:02.978Z,5.85
2023-04-19T23:42:54.524Z,5.80
2023-04-19T23:47:46.207Z,5.73
2023-04-19T23:52:37.809Z,5.65
2023-04-19T23:57:29.511Z,5.59
